Latest Weather Observations for Bellambi

IDN60901

Issued at 4:55 pm EDT Sunday 23 November 2014 (issued every 10 minutes, with the page automatically refreshed every 10 minutes)

About weather observations | Map of Sydney area stations | Latest observations for Sydney area | Other Formats
Station Details ID: 068228 Name: BELLAMBI AWS Lat: -34.37 Lon: 150.93 Height: 10.0 m
Data from the previous 72 hours. | See also: Recent months at Bellambi
Date/Time
EDT
Tmp

°C
App
Tmp
°C
Dew
Point
°C
Rel
Hum
%
Delta-T

°C
Wind Press
QNH
hPa
Press
MSL
hPa
Rain
since
9 am
mm
Dir
 
Spd
km/h
Gust
km/h
Spd
kts
Gust
kts
23/04:30pm 22.3 23.7 20.4 89 1.2 SSE 13 20 7 11 - - 1.0
23/04:13pm 21.8 23.4 19.9 89 1.2 ESE 11 17 6 9 - - 1.0
23/04:00pm 21.8 23.3 19.7 88 1.3 SSE 11 19 6 10 - - 1.0
23/03:30pm 22.9 27.1 21.0 89 1.2 CALM 0 7 0 4 - - 1.0
23/03:14pm 21.8 24.0 19.5 87 1.5 NE 7 13 4 7 - - 1.0
23/03:00pm 22.0 23.8 19.5 86 1.6 ENE 9 13 5 7 - - 0.8
23/02:49pm 22.3 24.2 19.7 85 1.7 ENE 9 13 5 7 - - 0.0
23/02:30pm 22.7 24.4 19.3 81 2.2 E 9 13 5 7 - - 0.0
23/02:00pm 23.7 25.8 20.2 81 2.3 E 9 13 5 7 - - 0.0
23/01:30pm 24.2 25.2 20.3 79 2.5 NE 15 19 8 10 - - 0.0
23/01:00pm 23.7 24.0 19.6 78 2.6 NE 17 20 9 11 - - 0.0
23/12:30pm 24.6 24.7 20.3 77 2.8 NE 20 24 11 13 - - 0.0
23/12:00pm 24.7 25.0 20.4 77 2.8 ENE 19 20 10 11 - - 0.0
23/11:30am 24.5 26.8 19.8 75 3.0 ENE 7 11 4 6 - - 0.0
23/11:00am 24.6 26.8 20.5 78 2.7 ENE 9 9 5 5 - - 0.0
23/10:30am 23.9 26.3 20.0 79 2.5 SSE 7 9 4 5 - - 0.0
23/10:00am 23.5 25.3 19.6 79 2.5 S 9 11 5 6 - - 0.0
23/09:30am 22.9 25.2 19.5 81 2.2 ESE 6 7 3 4 - - 0.0
23/09:00am 23.2 25.2 20.0 82 2.1 SE 9 11 5 6 - - 0.0
23/08:30am 22.4 24.2 19.6 84 1.8 S 9 11 5 6 - - 0.0
23/08:00am 21.8 22.8 19.4 86 1.5 S 13 15 7 8 - - 0.0
23/07:30am 21.3 22.5 19.0 87 1.5 S 11 13 6 7 - - 0.0
23/07:00am 20.5 23.6 18.6 89 1.2 CALM 0 0 0 0 - - 0.0
23/06:30am 20.4 22.7 18.5 89 1.2 SW 4 9 2 5 - - 0.0
23/06:00am 20.2 23.1 18.3 89 1.2 NNE 0 0 0 0 - - 0.0
23/05:30am 20.0 22.8 18.0 88 1.2 CALM 0 0 0 0 - - 0.0
23/05:00am 20.6 22.0 18.7 89 1.2 N 9 11 5 6 - - 0.0
23/04:30am 20.3 21.9 18.2 88 1.3 N 7 9 4 5 - - 0.0
23/04:00am 20.4 21.6 18.3 88 1.3 N 9 11 5 6 - - 0.0
23/03:30am 20.6 21.5 18.4 87 1.4 NNE 11 13 6 7 - - 0.0
23/03:00am 20.5 20.6 18.3 87 1.4 N 15 20 8 11 - - 0.0
23/02:30am 20.0 22.6 17.6 86 1.5 CALM 0 0 0 0 - - 0.0
23/02:00am 20.0 21.4 17.8 87 1.4 NW 7 9 4 5 - - 0.0
23/01:30am 20.4 22.1 18.5 89 1.2 NE 7 11 4 6 - - 0.0
23/01:00am 20.4 21.6 18.3 88 1.3 NNE 9 13 5 7 - - 0.0
23/12:30am 20.2 21.7 18.1 88 1.3 NNE 7 11 4 6 - - 0.0
23/12:00am 19.9 22.7 17.9 88 1.2 W 0 6 0 3 - - 0.0
 
Date/Time
EDT
Tmp

°C
App
Tmp
°C
Dew
Point
°C
Rel
Hum
%
Delta-T

°C
Wind Press
QNH
hPa
Press
MSL
hPa
Rain
since
9 am
mm
Dir
 
Spd
km/h
Gust
km/h
Spd
kts
Gust
kts
22/11:30pm 20.5 21.0 18.4 88 1.3 N 13 15 7 8 - - 0.0
22/11:00pm 20.6 21.5 18.5 88 1.3 N 11 15 6 8 - - 0.0
22/10:30pm 20.5 20.2 18.3 87 1.4 NNE 17 20 9 11 - - 0.0
22/10:00pm 20.6 22.3 18.4 87 1.4 N 7 13 4 7 - - 0.0
22/09:30pm 20.6 21.1 18.4 87 1.4 NNE 13 17 7 9 - - 0.0
22/09:00pm 20.5 19.8 18.3 87 1.4 NNE 19 24 10 13 - - 0.0
22/08:30pm 20.6 20.3 18.2 86 1.5 NNE 17 20 9 11 - - 0.0
22/08:00pm 20.6 20.2 18.0 85 1.6 NNE 17 19 9 10 - - 0.0
22/07:30pm 20.6 20.5 17.8 84 1.7 NE 15 19 8 10 - - 0.0
22/07:00pm 20.8 20.6 17.6 82 2.0 NE 15 19 8 10 - - 0.0
22/06:30pm 21.1 20.8 17.3 79 2.3 NNE 15 19 8 10 - - 0.0
22/06:00pm 20.9 19.9 16.7 77 2.5 NNE 17 20 9 11 - - 0.0
22/05:30pm 21.1 20.0 16.3 74 2.9 NNE 17 20 9 11 - - 0.0
22/05:00pm 21.4 20.2 16.1 72 3.2 NNE 17 20 9 11 - - 0.0
22/04:30pm 21.7 20.9 16.2 71 3.3 NE 15 19 8 10 - - 0.0
22/04:00pm 22.4 21.6 16.2 68 3.8 NE 15 19 8 10 - - 0.0
22/03:30pm 22.5 22.1 16.1 67 3.9 NE 13 19 7 10 - - 0.0
22/03:00pm 22.2 21.2 15.5 66 4.0 NNE 15 22 8 12 - - 0.0
22/02:30pm 22.4 21.2 16.0 67 3.9 NE 17 20 9 11 - - 0.0
22/02:00pm 22.4 21.4 15.5 65 4.1 NE 15 17 8 9 - - 0.0
22/01:30pm 22.3 21.6 15.4 65 4.1 NE 13 17 7 9 - - 0.0
22/01:00pm 22.1 21.3 15.2 65 4.1 ENE 13 17 7 9 - - 0.0
22/12:30pm 22.2 21.1 15.3 65 4.1 ENE 15 17 8 9 - - 0.0
22/12:00pm 22.1 20.3 14.5 62 4.5 ENE 17 20 9 11 - - 0.0
22/11:30am 22.4 21.0 15.5 65 4.1 ENE 17 20 9 11 - - 0.0
22/11:00am 22.0 20.8 15.1 65 4.1 ENE 15 17 8 9 - - 0.0
22/10:30am 21.8 21.0 15.2 66 3.9 E 13 17 7 9 - - 0.0
22/10:00am 21.6 19.6 15.0 66 3.9 ENE 19 20 10 11 - - 0.0
22/09:30am 21.1 20.5 14.7 67 3.8 E 11 13 6 7 - - 0.0
22/09:00am 21.1 20.6 15.0 68 3.6 SSE 11 15 6 8 - - 0.0
22/08:30am 20.9 20.9 15.2 70 3.4 SSE 9 13 5 7 - - 0.0
22/08:00am 20.7 20.2 15.0 70 3.4 SSE 11 13 6 7 - - 0.0
22/07:30am 20.2 19.3 14.8 71 3.2 S 13 17 7 9 - - 0.0
22/07:00am 19.8 18.4 14.6 72 3.0 S 15 17 8 9 - - 0.0
22/06:30am 19.4 17.9 15.3 77 2.4 SSE 17 20 9 11 - - 0.0
22/06:00am 18.9 16.9 15.0 78 2.3 S 19 22 10 12 - - 0.0
22/05:30am 19.1 17.6 15.4 79 2.2 S 17 20 9 11 - - 0.0
22/05:00am 19.1 17.3 15.6 80 2.1 S 19 22 10 12 - - 0.0
22/04:30am 19.1 17.6 15.4 79 2.2 SSE 17 20 9 11 - - 0.0
22/04:00am 19.0 17.7 15.9 82 1.8 SSE 17 20 9 11 - - 0.0
22/03:30am 19.4 18.2 16.1 81 2.0 S 17 19 9 10 - - 0.0
22/03:00am 19.4 18.1 15.9 80 2.1 SSE 17 20 9 11 - - 0.0
22/02:30am 19.4 17.8 15.9 80 2.1 SSE 19 22 10 12 - - 0.0
22/02:00am 19.6 17.5 16.3 81 2.0 S 22 28 12 15 - - 0.0
22/01:30am 19.7 17.1 15.8 78 2.3 SSE 24 28 13 15 - - 0.0
22/01:00am 19.7 16.1 16.2 80 2.1 SSE 30 35 16 19 - - 0.0
22/12:30am 19.7 16.6 16.5 82 1.9 SSE 28 33 15 18 - - 0.0
22/12:00am 19.9 16.2 16.9 83 1.8 SSE 32 39 17 21 - - 0.0
 
Date/Time
EDT
Tmp

°C
App
Tmp
°C
Dew
Point
°C
Rel
Hum
%
Delta-T

°C
Wind Press
QNH
hPa
Press
MSL
hPa
Rain
since
9 am
mm
Dir
 
Spd
km/h
Gust
km/h
Spd
kts
Gust
kts
21/11:30pm 20.0 17.1 17.0 83 1.8 S 28 37 15 20 - - 0.0
21/11:00pm 20.1 17.1 16.9 82 1.9 S 28 37 15 20 - - 0.0
21/10:30pm 20.2 16.3 17.0 82 1.9 S 33 41 18 22 - - 0.0
21/10:00pm 20.2 16.3 17.0 82 1.9 S 33 41 18 22 - - 0.0
21/09:30pm 20.4 16.8 17.6 84 1.7 S 33 39 18 21 - - 0.0
21/09:00pm 20.7 17.2 17.9 84 1.7 S 33 39 18 21 - - 0.0
21/08:30pm 20.5 15.9 17.9 85 1.6 S 39 46 21 25 - - 0.0
21/08:00pm 20.9 16.1 18.3 85 1.6 S 41 48 22 26 - - 0.0
21/07:30pm 21.1 16.6 18.3 84 1.7 S 39 44 21 24 - - 0.0
21/07:00pm 21.6 18.1 17.8 79 2.4 S 33 41 18 22 - - 0.0
21/06:30pm 22.1 19.6 18.1 78 2.5 S 28 33 15 18 - - 0.0
21/06:00pm 22.4 19.7 18.4 78 2.5 S 30 33 16 18 - - 0.0
21/05:30pm 22.8 20.4 19.2 80 2.3 S 30 37 16 20 - - 0.0
21/05:00pm 23.5 23.4 19.6 79 2.5 SSE 19 26 10 14 - - 0.0
21/04:30pm 23.4 25.4 19.1 77 2.7 N 7 9 4 5 - - 0.0
21/04:00pm 24.0 25.8 19.5 76 2.9 E 9 15 5 8 - - 0.0
21/03:30pm 24.0 25.2 19.1 74 3.1 NE 11 13 6 7 - - 0.0
21/03:00pm 24.1 26.1 19.2 74 3.1 ENE 7 9 4 5 - - 0.0
21/02:30pm 24.0 25.6 19.1 74 3.1 ENE 9 13 5 7 - - 0.0
21/02:00pm 23.8 25.3 18.9 74 3.1 E 9 13 5 7 - - 0.0
21/01:30pm 24.1 25.7 19.2 74 3.1 E 9 17 5 9 - - 0.0
21/01:00pm 23.0 24.5 18.1 74 3.1 ESE 7 13 4 7 - - 0.0
21/12:30pm 23.5 24.7 18.2 72 3.3 SSE 9 13 5 7 - - 0.0
21/12:00pm 23.6 24.8 18.3 72 3.3 ESE 9 13 5 7 - - 0.0
21/11:30am 23.3 24.2 17.5 70 3.6 NNE 9 13 5 7 - - 0.0
21/11:00am 23.3 23.3 17.3 69 3.7 NNE 13 17 7 9 - - 0.0
21/10:30am 23.6 23.9 17.8 70 3.6 NNE 13 17 7 9 - - 0.0
21/10:00am 23.1 23.1 17.3 70 3.6 NNE 13 17 7 9 - - 0.0
21/09:30am 22.9 23.5 16.9 69 3.7 NNE 9 13 5 7 - - 0.0
21/09:00am 22.9 23.5 16.9 69 3.7 ESE 9 13 5 7 - - 0.0
21/08:30am 22.9 22.9 17.1 70 3.6 SSE 13 17 7 9 - - 0.0
21/08:00am 22.6 23.7 16.6 69 3.7 SE 6 11 3 6 - - 0.0
21/07:30am 22.2 23.0 17.3 74 3.0 SSW 9 15 5 8 - - 0.0
21/07:00am 20.8 19.2 16.6 77 2.5 S 20 26 11 14 - - 0.0
21/06:30am 24.5 24.0 12.8 48 6.8 NW 7 9 4 5 - - 0.0
21/06:00am 24.6 23.1 13.2 49 6.6 NNW 13 19 7 10 - - 0.0
21/05:30am 26.2 21.8 13.0 44 7.7 N 28 44 15 24 - - 0.0
21/05:24am 27.0 20.7 12.3 40 8.5 N 37 44 20 24 - - 0.0
21/05:11am 27.3 19.1 14.0 44 7.9 NW 50 70 27 38 - - 0.0
21/05:09am 27.7 17.8 12.9 40 8.7 NW 57 70 31 38 - - 0.0
21/05:08am 27.5 23.0 12.7 40 8.6 WNW 28 70 15 38 - - 0.0
21/05:00am 26.4 23.3 14.5 48 7.1 WNW 24 32 13 17 - - 0.0
21/04:30am 23.8 24.2 17.3 67 4.0 NE 11 17 6 9 - - 0.0
21/04:00am 23.0 24.5 17.5 71 3.4 WNW 6 26 3 14 - - 0.0
21/03:30am 23.2 25.2 18.7 76 2.8 E 6 9 3 5 - - 0.0
21/03:00am 22.6 25.7 19.4 82 2.0 SE 2 7 1 4 - - 0.0
21/02:30am 21.1 22.2 18.9 87 1.4 W 11 13 6 7 - - 0.0
21/02:00am 20.7 23.1 18.8 89 1.2 ENE 4 11 2 6 - - 0.0
21/01:30am 20.3 23.0 18.6 90 1.1 SSE 2 7 1 4 - - 0.0
21/01:00am 20.5 23.6 18.6 89 1.2 CALM 0 0 0 0 - - 0.0
21/12:30am 20.7 23.0 18.6 88 1.3 ENE 4 9 2 5 - - 0.0
21/12:00am 20.5 23.5 18.4 88 1.3 CALM 0 0 0 0 - - 0.0
 
Date/Time
EDT
Tmp

°C
App
Tmp
°C
Dew
Point
°C
Rel
Hum
%
Delta-T

°C
Wind Press
QNH
hPa
Press
MSL
hPa
Rain
since
9 am
mm
Dir
 
Spd
km/h
Gust
km/h
Spd
kts
Gust
kts
20/11:30pm 20.5 23.4 18.3 87 1.4 CALM 0 0 0 0 - - 0.0
20/11:00pm 21.0 24.2 18.8 87 1.4 CALM 0 6 0 3 - - 0.0
20/10:30pm 20.9 23.5 18.5 86 1.5 SE 2 6 1 3 - - 0.0
20/10:00pm 21.2 22.6 18.6 85 1.6 SE 9 11 5 6 - - 0.0
20/09:30pm 21.2 22.4 18.2 83 1.9 S 9 11 5 6 - - 0.0
20/09:00pm 22.3 24.2 18.9 81 2.1 W 7 9 4 5 - - 0.0
20/08:30pm 21.8 24.5 18.6 82 2.0 NNW 2 9 1 5 - - 0.0
20/08:00pm 21.5 22.7 18.3 82 2.0 ENE 9 11 5 6 - - 0.0
20/07:30pm 22.2 23.3 18.0 77 2.6 ENE 9 11 5 6 - - 0.0
20/07:00pm 23.6 25.0 17.8 70 3.6 ESE 7 11 4 6 - - 0.0
20/06:30pm 24.2 26.0 18.2 69 3.8 NNE 6 11 3 6 - - 0.0
20/06:00pm 24.7 25.9 19.1 71 3.6 N 11 15 6 8 - - 0.0
20/05:30pm 23.4 22.4 18.9 76 2.9 NNE 22 28 12 15 - - 0.0
20/05:00pm 23.1 22.6 18.6 76 2.8 NNE 19 26 10 14 - - 0.0

Latest Capital City Observations: Canberra | Sydney | Melbourne | Brisbane | Adelaide | Perth | Hobart | Darwin

Other Formats:

Comma delimited format used in spreadsheet applications
http://www.bom.gov.au/fwo/IDN60901/IDN60901.94749.axf

JavaScript Object Notation format (JSON) in row-major order
http://www.bom.gov.au/fwo/IDN60901/IDN60901.94749.json